sensor_id;sensor_type;location;lat;lon;timestamp;P1;durP1;ratioP1;P2;durP2;ratioP2
28828;SDS011;15966;51.540;11.870;2022-07-23T00:02:08;7.80;;;6.72;;
28828;SDS011;15966;51.540;11.870;2022-07-23T00:04:34;9.00;;;5.90;;
28828;SDS011;15966;51.540;11.870;2022-07-23T00:07:00;6.20;;;4.70;;
28828;SDS011;15966;51.540;11.870;2022-07-23T00:09:26;6.90;;;6.20;;
28828;SDS011;15966;51.540;11.870;2022-07-23T00:11:55;7.47;;;5.85;;
28828;SDS011;15966;51.540;11.870;2022-07-23T00:14:21;8.55;;;5.20;;
28828;SDS011;15966;51.540;11.870;2022-07-23T00:16:47;6.32;;;5.72;;
28828;SDS011;15966;51.540;11.870;2022-07-23T00:19:13;9.38;;;6.30;;
28828;SDS011;15966;51.540;11.870;2022-07-23T00:21:40;6.50;;;5.88;;
28828;SDS011;15966;51.540;11.870;2022-07-23T00:24:06;6.22;;;5.45;;
28828;SDS011;15966;51.540;11.870;2022-07-23T00:26:32;9.93;;;6.43;;
28828;SDS011;15966;51.540;11.870;2022-07-23T00:28:58;7.07;;;6.35;;
28828;SDS011;15966;51.540;11.870;2022-07-23T00:31:24;6.93;;;6.32;;
28828;SDS011;15966;51.540;11.870;2022-07-23T00:33:50;6.50;;;5.22;;
28828;SDS011;15966;51.540;11.870;2022-07-23T00:36:17;11.32;;;5.05;;
28828;SDS011;15966;51.540;11.870;2022-07-23T00:38:43;7.18;;;5.65;;
28828;SDS011;15966;51.540;11.870;2022-07-23T00:41:09;7.05;;;5.57;;
28828;SDS011;15966;51.540;11.870;2022-07-23T00:43:35;8.50;;;6.55;;
28828;SDS011;15966;51.540;11.870;2022-07-23T00:46:01;14.25;;;6.60;;
28828;SDS011;15966;51.540;11.870;2022-07-23T00:48:27;8.25;;;6.65;;
28828;SDS011;15966;51.540;11.870;2022-07-23T00:50:53;7.25;;;6.55;;
28828;SDS011;15966;51.540;11.870;2022-07-23T00:53:20;6.28;;;5.18;;
28828;SDS011;15966;51.540;11.870;2022-07-23T00:55:46;8.50;;;6.82;;
28828;SDS011;15966;51.540;11.870;2022-07-23T00:58:13;10.82;;;6.53;;
28828;SDS011;15966;51.540;11.870;2022-07-23T01:00:40;7.20;;;6.50;;
28828;SDS011;15966;51.540;11.870;2022-07-23T01:03:07;6.38;;;5.80;;
28828;SDS011;15966;51.540;11.870;2022-07-23T01:05:33;6.88;;;5.90;;
28828;SDS011;15966;51.540;11.870;2022-07-23T01:07:59;7.90;;;5.95;;
28828;SDS011;15966;51.540;11.870;2022-07-23T01:10:26;7.40;;;6.43;;
28828;SDS011;15966;51.540;11.870;2022-07-23T01:13:04;8.55;;;6.88;;
28828;SDS011;15966;51.540;11.870;2022-07-23T01:15:31;6.60;;;5.93;;
28828;SDS011;15966;51.540;11.870;2022-07-23T01:17:58;10.02;;;6.57;;
28828;SDS011;15966;51.540;11.870;2022-07-23T01:20:24;6.88;;;6.28;;
28828;SDS011;15966;51.540;11.870;2022-07-23T01:22:51;7.80;;;6.05;;
28828;SDS011;15966;51.540;11.870;2022-07-23T01:25:18;7.00;;;6.32;;
28828;SDS011;15966;51.540;11.870;2022-07-23T01:27:44;7.55;;;5.93;;
28828;SDS011;15966;51.540;11.870;2022-07-23T01:30:11;6.82;;;6.22;;
28828;SDS011;15966;51.540;11.870;2022-07-23T01:32:37;8.98;;;8.10;;
28828;SDS011;15966;51.540;11.870;2022-07-23T01:35:04;7.50;;;6.47;;
28828;SDS011;15966;51.540;11.870;2022-07-23T01:37:31;8.13;;;6.93;;
28828;SDS011;15966;51.540;11.870;2022-07-23T01:39:57;8.93;;;7.13;;
28828;SDS011;15966;51.540;11.870;2022-07-23T01:42:24;10.07;;;7.90;;
28828;SDS011;15966;51.540;11.870;2022-07-23T01:44:50;7.47;;;6.45;;
28828;SDS011;15966;51.540;11.870;2022-07-23T01:47:16;8.15;;;7.30;;
28828;SDS011;15966;51.540;11.870;2022-07-23T01:49:42;13.82;;;9.35;;
28828;SDS011;15966;51.540;11.870;2022-07-23T01:52:08;9.60;;;8.60;;
28828;SDS011;15966;51.540;11.870;2022-07-23T01:54:36;9.35;;;8.32;;
28828;SDS011;15966;51.540;11.870;2022-07-23T01:57:03;8.15;;;7.35;;
28828;SDS011;15966;51.540;11.870;2022-07-23T01:59:30;9.27;;;8.33;;
28828;SDS011;15966;51.540;11.870;2022-07-23T02:01:56;9.63;;;8.70;;
28828;SDS011;15966;51.540;11.870;2022-07-23T02:04:23;18.13;;;9.18;;
28828;SDS011;15966;51.540;11.870;2022-07-23T02:06:49;11.93;;;10.68;;
28828;SDS011;15966;51.540;11.870;2022-07-23T02:09:16;14.60;;;10.80;;
28828;SDS011;15966;51.540;11.870;2022-07-23T02:11:43;14.93;;;11.23;;
28828;SDS011;15966;51.540;11.870;2022-07-23T02:14:09;13.77;;;11.13;;
28828;SDS011;15966;51.540;11.870;2022-07-23T02:16:35;12.95;;;11.75;;
28828;SDS011;15966;51.540;11.870;2022-07-23T02:19:02;16.33;;;12.48;;
28828;SDS011;15966;51.540;11.870;2022-07-23T02:21:28;12.25;;;11.00;;
28828;SDS011;15966;51.540;11.870;2022-07-23T02:23:54;17.08;;;12.23;;
28828;SDS011;15966;51.540;11.870;2022-07-23T02:26:20;12.73;;;10.35;;
28828;SDS011;15966;51.540;11.870;2022-07-23T02:28:46;15.23;;;9.02;;
28828;SDS011;15966;51.540;11.870;2022-07-23T02:31:12;13.23;;;11.05;;
28828;SDS011;15966;51.540;11.870;2022-07-23T02:33:39;10.85;;;9.85;;
28828;SDS011;15966;51.540;11.870;2022-07-23T02:36:05;14.55;;;11.20;;
28828;SDS011;15966;51.540;11.870;2022-07-23T02:38:31;15.05;;;12.18;;
28828;SDS011;15966;51.540;11.870;2022-07-23T02:40:57;12.82;;;9.85;;
28828;SDS011;15966;51.540;11.870;2022-07-23T02:43:23;12.48;;;11.25;;
28828;SDS011;15966;51.540;11.870;2022-07-23T02:45:49;15.38;;;12.18;;
28828;SDS011;15966;51.540;11.870;2022-07-23T02:48:15;12.73;;;11.50;;
28828;SDS011;15966;51.540;11.870;2022-07-23T02:50:41;16.08;;;11.38;;
28828;SDS011;15966;51.540;11.870;2022-07-23T02:53:08;11.38;;;10.20;;
28828;SDS011;15966;51.540;11.870;2022-07-23T02:55:34;10.60;;;9.15;;
28828;SDS011;15966;51.540;11.870;2022-07-23T02:58:00;12.60;;;10.15;;
28828;SDS011;15966;51.540;11.870;2022-07-23T03:00:26;12.77;;;11.35;;
28828;SDS011;15966;51.540;11.870;2022-07-23T03:02:52;13.93;;;10.88;;
28828;SDS011;15966;51.540;11.870;2022-07-23T03:05:18;10.95;;;9.45;;
28828;SDS011;15966;51.540;11.870;2022-07-23T03:07:44;10.10;;;9.20;;
28828;SDS011;15966;51.540;11.870;2022-07-23T03:10:10;10.57;;;8.32;;
28828;SDS011;15966;51.540;11.870;2022-07-23T03:12:36;11.18;;;9.45;;
28828;SDS011;15966;51.540;11.870;2022-07-23T03:15:02;11.48;;;8.98;;
28828;SDS011;15966;51.540;11.870;2022-07-23T03:17:29;12.13;;;10.75;;
28828;SDS011;15966;51.540;11.870;2022-07-23T03:19:55;12.95;;;11.68;;
28828;SDS011;15966;51.540;11.870;2022-07-23T03:22:21;14.00;;;11.55;;
28828;SDS011;15966;51.540;11.870;2022-07-23T03:24:47;12.98;;;9.95;;
28828;SDS011;15966;51.540;11.870;2022-07-23T03:27:19;10.88;;;9.43;;
28828;SDS011;15966;51.540;11.870;2022-07-23T03:29:46;18.67;;;11.65;;
28828;SDS011;15966;51.540;11.870;2022-07-23T03:32:12;14.40;;;11.90;;
28828;SDS011;15966;51.540;11.870;2022-07-23T03:34:38;14.93;;;12.93;;
28828;SDS011;15966;51.540;11.870;2022-07-23T03:37:04;12.93;;;11.63;;
28828;SDS011;15966;51.540;11.870;2022-07-23T03:39:30;13.82;;;12.55;;
28828;SDS011;15966;51.540;11.870;2022-07-23T03:41:56;13.48;;;11.55;;
28828;SDS011;15966;51.540;11.870;2022-07-23T03:44:22;14.00;;;12.60;;
28828;SDS011;15966;51.540;11.870;2022-07-23T03:46:48;17.98;;;15.02;;
28828;SDS011;15966;51.540;11.870;2022-07-23T03:49:14;13.77;;;12.40;;
28828;SDS011;15966;51.540;11.870;2022-07-23T03:51:40;14.90;;;12.35;;
28828;SDS011;15966;51.540;11.870;2022-07-23T03:54:07;18.42;;;14.63;;
28828;SDS011;15966;51.540;11.870;2022-07-23T03:56:33;17.10;;;15.17;;
28828;SDS011;15966;51.540;11.870;2022-07-23T03:58:59;20.02;;;15.88;;
28828;SDS011;15966;51.540;11.870;2022-07-23T04:01:25;22.98;;;18.15;;
28828;SDS011;15966;51.540;11.870;2022-07-23T04:03:51;20.00;;;17.90;;
28828;SDS011;15966;51.540;11.870;2022-07-23T04:06:17;24.60;;;19.05;;
28828;SDS011;15966;51.540;11.870;2022-07-23T04:08:44;17.70;;;15.93;;
28828;SDS011;15966;51.540;11.870;2022-07-23T04:11:10;18.45;;;15.25;;
28828;SDS011;15966;51.540;11.870;2022-07-23T04:13:36;18.95;;;16.90;;
28828;SDS011;15966;51.540;11.870;2022-07-23T04:16:02;21.05;;;18.77;;
28828;SDS011;15966;51.540;11.870;2022-07-23T04:18:28;19.02;;;16.45;;
28828;SDS011;15966;51.540;11.870;2022-07-23T04:20:55;23.58;;;19.17;;
28828;SDS011;15966;51.540;11.870;2022-07-23T04:23:21;15.32;;;13.90;;
28828;SDS011;15966;51.540;11.870;2022-07-23T04:25:47;19.00;;;16.88;;
28828;SDS011;15966;51.540;11.870;2022-07-23T04:28:13;18.05;;;16.15;;
28828;SDS011;15966;51.540;11.870;2022-07-23T04:30:39;19.17;;;17.27;;
28828;SDS011;15966;51.540;11.870;2022-07-23T04:33:05;20.38;;;18.23;;
28828;SDS011;15966;51.540;11.870;2022-07-23T04:35:32;18.05;;;16.05;;
28828;SDS011;15966;51.540;11.870;2022-07-23T04:37:58;17.13;;;15.38;;
28828;SDS011;15966;51.540;11.870;2022-07-23T04:40:24;16.45;;;14.80;;
28828;SDS011;15966;51.540;11.870;2022-07-23T04:42:51;16.17;;;14.43;;
28828;SDS011;15966;51.540;11.870;2022-07-23T04:45:17;17.27;;;15.60;;
28828;SDS011;15966;51.540;11.870;2022-07-23T04:47:43;19.23;;;17.15;;
28828;SDS011;15966;51.540;11.870;2022-07-23T04:50:09;18.70;;;16.42;;
28828;SDS011;15966;51.540;11.870;2022-07-23T04:52:35;15.50;;;12.68;;
28828;SDS011;15966;51.540;11.870;2022-07-23T04:55:01;14.82;;;13.27;;
28828;SDS011;15966;51.540;11.870;2022-07-23T04:57:28;14.10;;;11.52;;
28828;SDS011;15966;51.540;11.870;2022-07-23T04:59:54;13.27;;;11.57;;
28828;SDS011;15966;51.540;11.870;2022-07-23T05:02:20;17.30;;;11.30;;
28828;SDS011;15966;51.540;11.870;2022-07-23T05:04:46;14.52;;;11.30;;
28828;SDS011;15966;51.540;11.870;2022-07-23T05:07:12;13.85;;;10.93;;
28828;SDS011;15966;51.540;11.870;2022-07-23T05:09:38;13.10;;;10.32;;
28828;SDS011;15966;51.540;11.870;2022-07-23T05:12:04;11.50;;;10.38;;
28828;SDS011;15966;51.540;11.870;2022-07-23T05:14:30;12.73;;;11.52;;
28828;SDS011;15966;51.540;11.870;2022-07-23T05:16:56;13.15;;;11.95;;
28828;SDS011;15966;51.540;11.870;2022-07-23T05:19:23;18.70;;;13.45;;
28828;SDS011;15966;51.540;11.870;2022-07-23T05:21:49;13.07;;;12.00;;
28828;SDS011;15966;51.540;11.870;2022-07-23T05:24:15;14.10;;;12.05;;
28828;SDS011;15966;51.540;11.870;2022-07-23T05:26:41;13.55;;;12.13;;
28828;SDS011;15966;51.540;11.870;2022-07-23T05:29:07;14.98;;;12.20;;
28828;SDS011;15966;51.540;11.870;2022-07-23T05:31:33;15.85;;;13.57;;
28828;SDS011;15966;51.540;11.870;2022-07-23T05:33:59;15.68;;;12.57;;
28828;SDS011;15966;51.540;11.870;2022-07-23T05:36:25;14.30;;;13.02;;
28828;SDS011;15966;51.540;11.870;2022-07-23T05:38:51;15.65;;;13.07;;
28828;SDS011;15966;51.540;11.870;2022-07-23T05:41:17;19.77;;;12.80;;
28828;SDS011;15966;51.540;11.870;2022-07-23T05:43:43;14.52;;;12.73;;
28828;SDS011;15966;51.540;11.870;2022-07-23T05:46:10;14.85;;;12.68;;
28828;SDS011;15966;51.540;11.870;2022-07-23T05:48:36;13.90;;;12.13;;
28828;SDS011;15966;51.540;11.870;2022-07-23T05:51:02;14.57;;;13.07;;
28828;SDS011;15966;51.540;11.870;2022-07-23T05:53:31;16.35;;;11.65;;
28828;SDS011;15966;51.540;11.870;2022-07-23T05:55:57;13.85;;;12.35;;
28828;SDS011;15966;51.540;11.870;2022-07-23T05:58:23;15.10;;;12.55;;
28828;SDS011;15966;51.540;11.870;2022-07-23T06:00:49;13.80;;;12.40;;
28828;SDS011;15966;51.540;11.870;2022-07-23T06:03:15;15.65;;;13.85;;
28828;SDS011;15966;51.540;11.870;2022-07-23T06:05:42;17.30;;;13.60;;
28828;SDS011;15966;51.540;11.870;2022-07-23T06:08:08;16.25;;;14.20;;
28828;SDS011;15966;51.540;11.870;2022-07-23T06:10:34;15.70;;;13.48;;
28828;SDS011;15966;51.540;11.870;2022-07-23T06:13:00;14.77;;;13.25;;
28828;SDS011;15966;51.540;11.870;2022-07-23T06:15:27;16.08;;;14.40;;
28828;SDS011;15966;51.540;11.870;2022-07-23T06:17:53;16.65;;;13.98;;
28828;SDS011;15966;51.540;11.870;2022-07-23T06:20:19;14.30;;;12.85;;
28828;SDS011;15966;51.540;11.870;2022-07-23T06:22:45;15.98;;;14.38;;
28828;SDS011;15966;51.540;11.870;2022-07-23T06:25:11;17.67;;;16.02;;
28828;SDS011;15966;51.540;11.870;2022-07-23T06:27:37;18.80;;;17.08;;
28828;SDS011;15966;51.540;11.870;2022-07-23T06:30:03;20.00;;;17.52;;
28828;SDS011;15966;51.540;11.870;2022-07-23T06:32:30;22.02;;;19.08;;
28828;SDS011;15966;51.540;11.870;2022-07-23T06:34:56;20.80;;;18.65;;
28828;SDS011;15966;51.540;11.870;2022-07-23T06:37:22;23.75;;;20.65;;
28828;SDS011;15966;51.540;11.870;2022-07-23T06:39:48;22.83;;;18.02;;
28828;SDS011;15966;51.540;11.870;2022-07-23T06:42:14;18.73;;;16.77;;
28828;SDS011;15966;51.540;11.870;2022-07-23T06:44:40;17.95;;;15.80;;
28828;SDS011;15966;51.540;11.870;2022-07-23T06:47:07;21.25;;;19.15;;
28828;SDS011;15966;51.540;11.870;2022-07-23T06:49:33;20.38;;;18.27;;
28828;SDS011;15966;51.540;11.870;2022-07-23T06:51:59;20.63;;;18.75;;
28828;SDS011;15966;51.540;11.870;2022-07-23T06:54:25;21.50;;;19.13;;
28828;SDS011;15966;51.540;11.870;2022-07-23T06:56:51;22.45;;;18.35;;
28828;SDS011;15966;51.540;11.870;2022-07-23T06:59:17;21.23;;;19.15;;
28828;SDS011;15966;51.540;11.870;2022-07-23T07:01:43;22.55;;;20.15;;
28828;SDS011;15966;51.540;11.870;2022-07-23T07:04:09;24.42;;;22.00;;
28828;SDS011;15966;51.540;11.870;2022-07-23T07:06:35;21.48;;;19.30;;
28828;SDS011;15966;51.540;11.870;2022-07-23T07:09:01;19.75;;;17.75;;
28828;SDS011;15966;51.540;11.870;2022-07-23T07:11:27;23.35;;;19.27;;
28828;SDS011;15966;51.540;11.870;2022-07-23T07:13:54;22.52;;;20.42;;
28828;SDS011;15966;51.540;11.870;2022-07-23T07:16:20;23.88;;;21.48;;
28828;SDS011;15966;51.540;11.870;2022-07-23T07:18:46;21.08;;;19.08;;
28828;SDS011;15966;51.540;11.870;2022-07-23T07:21:12;17.35;;;15.85;;
28828;SDS011;15966;51.540;11.870;2022-07-23T07:23:38;23.38;;;20.83;;
28828;SDS011;15966;51.540;11.870;2022-07-23T07:26:04;21.73;;;19.42;;
28828;SDS011;15966;51.540;11.870;2022-07-23T07:28:30;20.83;;;17.73;;
28828;SDS011;15966;51.540;11.870;2022-07-23T07:30:56;15.35;;;13.85;;
28828;SDS011;15966;51.540;11.870;2022-07-23T07:33:22;11.70;;;10.68;;
28828;SDS011;15966;51.540;11.870;2022-07-23T07:35:48;16.25;;;14.75;;
28828;SDS011;15966;51.540;11.870;2022-07-23T07:38:14;17.08;;;15.48;;
28828;SDS011;15966;51.540;11.870;2022-07-23T07:40:40;15.82;;;14.27;;
28828;SDS011;15966;51.540;11.870;2022-07-23T07:43:06;15.60;;;13.73;;
28828;SDS011;15966;51.540;11.870;2022-07-23T07:45:33;13.18;;;11.77;;
28828;SDS011;15966;51.540;11.870;2022-07-23T07:47:59;14.88;;;11.68;;
28828;SDS011;15966;51.540;11.870;2022-07-23T07:50:25;14.57;;;13.18;;
28828;SDS011;15966;51.540;11.870;2022-07-23T07:52:51;15.60;;;13.57;;
28828;SDS011;15966;51.540;11.870;2022-07-23T07:55:17;18.00;;;16.33;;
28828;SDS011;15966;51.540;11.870;2022-07-23T07:57:43;14.85;;;13.48;;
28828;SDS011;15966;51.540;11.870;2022-07-23T08:00:10;15.85;;;14.38;;
28828;SDS011;15966;51.540;11.870;2022-07-23T08:02:46;16.27;;;14.60;;
28828;SDS011;15966;51.540;11.870;2022-07-23T08:05:14;12.80;;;11.70;;
28828;SDS011;15966;51.540;11.870;2022-07-23T08:07:43;13.75;;;12.32;;
28828;SDS011;15966;51.540;11.870;2022-07-23T08:10:09;13.18;;;11.88;;
28828;SDS011;15966;51.540;11.870;2022-07-23T08:12:39;12.25;;;11.15;;
28828;SDS011;15966;51.540;11.870;2022-07-23T08:15:17;13.25;;;11.95;;
28828;SDS011;15966;51.540;11.870;2022-07-23T08:17:44;12.60;;;11.30;;
28828;SDS011;15966;51.540;11.870;2022-07-23T08:22:47;11.23;;;10.13;;
28828;SDS011;15966;51.540;11.870;2022-07-23T08:25:16;13.27;;;12.07;;
28828;SDS011;15966;51.540;11.870;2022-07-23T08:27:49;16.65;;;15.13;;
28828;SDS011;15966;51.540;11.870;2022-07-23T08:30:15;20.17;;;18.20;;
28828;SDS011;15966;51.540;11.870;2022-07-23T08:35:25;21.55;;;19.25;;
28828;SDS011;15966;51.540;11.870;2022-07-23T08:37:53;22.52;;;20.42;;
28828;SDS011;15966;51.540;11.870;2022-07-23T08:40:19;22.95;;;20.25;;
28828;SDS011;15966;51.540;11.870;2022-07-23T08:42:49;23.13;;;20.77;;
28828;SDS011;15966;51.540;11.870;2022-07-23T08:45:20;20.77;;;18.63;;
28828;SDS011;15966;51.540;11.870;2022-07-23T08:47:55;22.98;;;20.88;;
28828;SDS011;15966;51.540;11.870;2022-07-23T08:50:23;24.88;;;22.48;;
28828;SDS011;15966;51.540;11.870;2022-07-23T08:52:50;22.50;;;20.42;;
28828;SDS011;15966;51.540;11.870;2022-07-23T08:55:21;29.58;;;26.55;;
28828;SDS011;15966;51.540;11.870;2022-07-23T08:57:48;29.42;;;26.58;;
28828;SDS011;15966;51.540;11.870;2022-07-23T09:00:15;26.95;;;24.40;;
28828;SDS011;15966;51.540;11.870;2022-07-23T09:02:42;27.00;;;24.60;;
28828;SDS011;15966;51.540;11.870;2022-07-23T09:05:10;26.95;;;24.10;;
28828;SDS011;15966;51.540;11.870;2022-07-23T09:07:37;27.95;;;25.25;;
28828;SDS011;15966;51.540;11.870;2022-07-23T09:10:07;21.25;;;18.73;;
28828;SDS011;15966;51.540;11.870;2022-07-23T09:12:35;19.77;;;17.95;;
28828;SDS011;15966;51.540;11.870;2022-07-23T09:15:06;16.45;;;14.82;;
28828;SDS011;15966;51.540;11.870;2022-07-23T09:17:40;17.23;;;15.52;;
28828;SDS011;15966;51.540;11.870;2022-07-23T09:20:11;17.30;;;15.48;;
28828;SDS011;15966;51.540;11.870;2022-07-23T09:22:40;17.17;;;14.25;;
28828;SDS011;15966;51.540;11.870;2022-07-23T09:27:48;17.35;;;14.27;;
28828;SDS011;15966;51.540;11.870;2022-07-23T09:30:17;18.45;;;15.43;;
28828;SDS011;15966;51.540;11.870;2022-07-23T09:33:04;15.52;;;13.98;;
28828;SDS011;15966;51.540;11.870;2022-07-23T09:38:19;14.55;;;13.05;;
28828;SDS011;15966;51.540;11.870;2022-07-23T09:43:12;14.55;;;13.20;;
28828;SDS011;15966;51.540;11.870;2022-07-23T09:45:53;13.18;;;11.95;;
28828;SDS011;15966;51.540;11.870;2022-07-23T09:48:19;16.17;;;14.07;;
28828;SDS011;15966;51.540;11.870;2022-07-23T09:50:46;18.55;;;14.82;;
28828;SDS011;15966;51.540;11.870;2022-07-23T09:53:25;17.98;;;14.73;;
28828;SDS011;15966;51.540;11.870;2022-07-23T09:55:52;18.23;;;13.88;;
28828;SDS011;15966;51.540;11.870;2022-07-23T09:58:21;16.98;;;14.90;;
28828;SDS011;15966;51.540;11.870;2022-07-23T10:00:48;19.10;;;15.80;;
28828;SDS011;15966;51.540;11.870;2022-07-23T10:05:42;18.67;;;14.85;;
28828;SDS011;15966;51.540;11.870;2022-07-23T10:08:09;17.52;;;15.73;;
28828;SDS011;15966;51.540;11.870;2022-07-23T10:10:38;17.10;;;15.50;;
28828;SDS011;15966;51.540;11.870;2022-07-23T10:13:05;16.88;;;15.20;;
28828;SDS011;15966;51.540;11.870;2022-07-23T10:16:07;18.67;;;16.88;;
28828;SDS011;15966;51.540;11.870;2022-07-23T10:18:33;19.30;;;17.30;;
28828;SDS011;15966;51.540;11.870;2022-07-23T10:20:59;23.33;;;17.85;;
28828;SDS011;15966;51.540;11.870;2022-07-23T10:26:49;17.63;;;16.08;;
28828;SDS011;15966;51.540;11.870;2022-07-23T10:29:25;17.77;;;15.98;;
28828;SDS011;15966;51.540;11.870;2022-07-23T10:32:02;13.25;;;11.95;;
28828;SDS011;15966;51.540;11.870;2022-07-23T10:34:36;21.63;;;15.20;;
28828;SDS011;15966;51.540;11.870;2022-07-23T10:37:28;15.55;;;13.82;;
28828;SDS011;15966;51.540;11.870;2022-07-23T10:40:09;16.42;;;14.80;;
28828;SDS011;15966;51.540;11.870;2022-07-23T10:42:42;14.80;;;13.23;;
28828;SDS011;15966;51.540;11.870;2022-07-23T10:45:24;15.47;;;14.07;;
28828;SDS011;15966;51.540;11.870;2022-07-23T10:48:11;16.20;;;14.65;;
28828;SDS011;15966;51.540;11.870;2022-07-23T10:50:37;18.05;;;14.07;;
28828;SDS011;15966;51.540;11.870;2022-07-23T10:53:07;16.00;;;14.60;;
28828;SDS011;15966;51.540;11.870;2022-07-23T11:00:34;13.80;;;12.60;;
28828;SDS011;15966;51.540;11.870;2022-07-23T11:03:02;17.15;;;15.52;;
28828;SDS011;15966;51.540;11.870;2022-07-23T11:05:40;15.55;;;14.07;;
28828;SDS011;15966;51.540;11.870;2022-07-23T11:10:37;18.25;;;16.35;;
28828;SDS011;15966;51.540;11.870;2022-07-23T11:31:57;16.77;;;15.18;;
28828;SDS011;15966;51.540;11.870;2022-07-23T11:34:35;14.60;;;13.18;;
28828;SDS011;15966;51.540;11.870;2022-07-23T11:37:09;15.20;;;13.82;;
28828;SDS011;15966;51.540;11.870;2022-07-23T11:39:36;15.85;;;14.35;;
28828;SDS011;15966;51.540;11.870;2022-07-23T11:42:04;14.18;;;12.63;;
28828;SDS011;15966;51.540;11.870;2022-07-23T11:44:35;15.48;;;13.88;;
28828;SDS011;15966;51.540;11.870;2022-07-23T11:47:06;15.50;;;13.93;;
28828;SDS011;15966;51.540;11.870;2022-07-23T11:49:33;14.48;;;12.98;;
28828;SDS011;15966;51.540;11.870;2022-07-23T11:52:07;16.35;;;14.75;;
28828;SDS011;15966;51.540;11.870;2022-07-23T11:54:46;16.07;;;14.57;;
28828;SDS011;15966;51.540;11.870;2022-07-23T11:57:12;16.35;;;14.68;;
28828;SDS011;15966;51.540;11.870;2022-07-23T11:59:38;14.77;;;13.38;;
28828;SDS011;15966;51.540;11.870;2022-07-23T12:02:05;18.80;;;15.90;;
28828;SDS011;15966;51.540;11.870;2022-07-23T12:10:23;15.50;;;14.13;;
28828;SDS011;15966;51.540;11.870;2022-07-23T12:15:30;14.50;;;13.20;;
28828;SDS011;15966;51.540;11.870;2022-07-23T12:17:59;12.80;;;11.60;;
28828;SDS011;15966;51.540;11.870;2022-07-23T12:20:27;13.30;;;12.15;;
28828;SDS011;15966;51.540;11.870;2022-07-23T12:22:55;17.27;;;13.57;;
28828;SDS011;15966;51.540;11.870;2022-07-23T12:25:25;15.30;;;13.73;;
28828;SDS011;15966;51.540;11.870;2022-07-23T12:28:03;14.70;;;13.32;;
28828;SDS011;15966;51.540;11.870;2022-07-23T12:33:25;13.02;;;11.88;;
28828;SDS011;15966;51.540;11.870;2022-07-23T12:35:54;13.25;;;12.00;;
28828;SDS011;15966;51.540;11.870;2022-07-23T12:38:22;14.18;;;12.77;;
28828;SDS011;15966;51.540;11.870;2022-07-23T12:40:50;14.93;;;13.50;;
28828;SDS011;15966;51.540;11.870;2022-07-23T12:43:24;13.93;;;12.57;;
28828;SDS011;15966;51.540;11.870;2022-07-23T12:45:52;11.48;;;10.45;;
28828;SDS011;15966;51.540;11.870;2022-07-23T12:48:31;14.82;;;11.65;;
28828;SDS011;15966;51.540;11.870;2022-07-23T12:51:18;11.82;;;10.73;;
28828;SDS011;15966;51.540;11.870;2022-07-23T12:53:49;12.02;;;10.93;;
28828;SDS011;15966;51.540;11.870;2022-07-23T12:56:20;11.13;;;10.02;;
28828;SDS011;15966;51.540;11.870;2022-07-23T13:01:29;14.93;;;11.32;;
28828;SDS011;15966;51.540;11.870;2022-07-23T13:04:03;14.88;;;13.45;;
28828;SDS011;15966;51.540;11.870;2022-07-23T13:06:32;14.57;;;13.27;;
28828;SDS011;15966;51.540;11.870;2022-07-23T13:09:03;12.88;;;11.68;;
28828;SDS011;15966;51.540;11.870;2022-07-23T13:11:30;11.63;;;10.60;;
28828;SDS011;15966;51.540;11.870;2022-07-23T13:13:57;10.57;;;9.67;;
28828;SDS011;15966;51.540;11.870;2022-07-23T13:16:23;11.57;;;10.48;;
28828;SDS011;15966;51.540;11.870;2022-07-23T13:18:49;14.73;;;11.85;;
28828;SDS011;15966;51.540;11.870;2022-07-23T13:21:15;11.75;;;10.43;;
28828;SDS011;15966;51.540;11.870;2022-07-23T13:23:41;12.80;;;11.65;;
28828;SDS011;15966;51.540;11.870;2022-07-23T13:26:07;12.20;;;10.50;;
28828;SDS011;15966;51.540;11.870;2022-07-23T13:28:34;15.98;;;12.15;;
28828;SDS011;15966;51.540;11.870;2022-07-23T13:31:00;13.68;;;11.80;;
28828;SDS011;15966;51.540;11.870;2022-07-23T13:33:26;14.67;;;10.80;;
28828;SDS011;15966;51.540;11.870;2022-07-23T13:35:53;12.25;;;11.00;;
28828;SDS011;15966;51.540;11.870;2022-07-23T13:38:19;13.35;;;12.18;;
28828;SDS011;15966;51.540;11.870;2022-07-23T13:40:46;13.38;;;12.20;;
28828;SDS011;15966;51.540;11.870;2022-07-23T13:43:14;11.82;;;10.63;;
28828;SDS011;15966;51.540;11.870;2022-07-23T13:45:42;10.00;;;9.02;;
28828;SDS011;15966;51.540;11.870;2022-07-23T13:50:35;11.63;;;10.50;;
28828;SDS011;15966;51.540;11.870;2022-07-23T13:53:06;10.60;;;9.60;;
28828;SDS011;15966;51.540;11.870;2022-07-23T13:55:34;12.30;;;11.05;;
28828;SDS011;15966;51.540;11.870;2022-07-23T13:58:01;12.43;;;9.88;;
28828;SDS011;15966;51.540;11.870;2022-07-23T14:00:28;11.20;;;10.13;;
28828;SDS011;15966;51.540;11.870;2022-07-23T14:02:55;11.60;;;10.68;;
28828;SDS011;15966;51.540;11.870;2022-07-23T14:05:22;10.20;;;9.32;;
28828;SDS011;15966;51.540;11.870;2022-07-23T14:07:48;10.85;;;10.02;;
28828;SDS011;15966;51.540;11.870;2022-07-23T14:10:15;11.07;;;10.07;;
28828;SDS011;15966;51.540;11.870;2022-07-23T14:12:42;10.70;;;9.55;;
28828;SDS011;15966;51.540;11.870;2022-07-23T14:15:09;10.95;;;10.05;;
28828;SDS011;15966;51.540;11.870;2022-07-23T14:17:36;13.45;;;10.40;;
28828;SDS011;15966;51.540;11.870;2022-07-23T14:20:04;12.23;;;10.93;;
28828;SDS011;15966;51.540;11.870;2022-07-23T14:24:57;15.15;;;10.77;;
28828;SDS011;15966;51.540;11.870;2022-07-23T14:27:24;11.37;;;10.43;;
28828;SDS011;15966;51.540;11.870;2022-07-23T14:29:50;10.57;;;9.57;;
28828;SDS011;15966;51.540;11.870;2022-07-23T14:32:18;10.88;;;9.88;;
28828;SDS011;15966;51.540;11.870;2022-07-23T14:34:44;9.27;;;8.43;;
28828;SDS011;15966;51.540;11.870;2022-07-23T14:37:11;12.50;;;10.30;;
28828;SDS011;15966;51.540;11.870;2022-07-23T14:39:37;11.73;;;10.75;;
28828;SDS011;15966;51.540;11.870;2022-07-23T14:42:04;8.95;;;8.25;;
28828;SDS011;15966;51.540;11.870;2022-07-23T14:44:31;9.50;;;8.48;;
28828;SDS011;15966;51.540;11.870;2022-07-23T14:46:57;8.80;;;8.00;;
28828;SDS011;15966;51.540;11.870;2022-07-23T14:51:51;8.30;;;7.55;;
28828;SDS011;15966;51.540;11.870;2022-07-23T14:54:17;8.77;;;7.07;;
28828;SDS011;15966;51.540;11.870;2022-07-23T14:56:44;7.70;;;7.05;;
28828;SDS011;15966;51.540;11.870;2022-07-23T14:59:11;7.57;;;6.43;;
28828;SDS011;15966;51.540;11.870;2022-07-23T15:01:37;9.63;;;6.70;;
28828;SDS011;15966;51.540;11.870;2022-07-23T15:04:04;7.53;;;6.63;;
28828;SDS011;15966;51.540;11.870;2022-07-23T15:06:31;7.45;;;6.72;;
28828;SDS011;15966;51.540;11.870;2022-07-23T15:08:57;8.48;;;6.55;;
28828;SDS011;15966;51.540;11.870;2022-07-23T15:11:24;6.82;;;5.97;;
28828;SDS011;15966;51.540;11.870;2022-07-23T15:13:56;6.97;;;6.28;;
28828;SDS011;15966;51.540;11.870;2022-07-23T15:16:23;7.80;;;6.03;;
28828;SDS011;15966;51.540;11.870;2022-07-23T15:18:49;7.35;;;6.65;;
28828;SDS011;15966;51.540;11.870;2022-07-23T15:21:15;6.80;;;6.18;;
28828;SDS011;15966;51.540;11.870;2022-07-23T15:23:41;7.55;;;6.15;;